ePrivacy and GPDR Cookie Consent by Cookie Consent
EmailTwitter


Observations de surface / États-Unis / KJFK (74486)

Régions: Québec | Canada | États-Unis | Europe | France | UK | Ailleurs
Station
Affichage
Infos & localisation pour KJFK (74486) | Aide pour décoder les METARs

Observations prises le 2023-02-07 à 11H51 UTC à NEW YORK/JF KENN, NY (KJFK)

Etat du ciel: ciel variable.

Température: -2.2 Celsius

Point de rosée: -9.4 Celsius

Humidité relative: 58%

Facteur vent -6.

Vents: Nord à 9 km/h ou 5 noeuds.

Pression au niveau moyen de la mer: 102.84 kilopascals.

Calage altimétrique: 102.84 kilopascals ou 30.37 pouces de mercure.

Visibilité horizontale: 10.00 milles terrestres ou 16.00 kilomètres.

Observation METAR:

KJFK 071151Z 36005KT 10SM SCT250 M02/M09 A3037 RMK AO2 SLP284 T10221094 10000

21022 53019=